Alexander, Kansas
Current Conditions -  °F | °C
As of 2:55 AM on Friday 31 Oct 2014 (Local Time) from KHYS Reporting Station
Clear Clear  
Wind Chill: 32°   Ceiling: Unl
Heat Index: 39°   Visibility: 10mi
Dew Point: 28°   Wind: 12mph
Humidity: 65%   Direction: 20°NNE
Pressure: 30.43"   Gusts: NA
Location:  38.47°N, 99.55°W
Report Text: KHYS 310755Z AUTO 02010KT 10SM CLR 04/M02 A3043 RMK AO1
Loading
Personal Weather Stations






























Interactive Weather Map New forecast layout! Learn more

10-Day Weather Forecast

Advertisements
Track Severe Weather on mobile